sensor_id;sensor_type;location;lat;lon;timestamp;P1;durP1;ratioP1;P2;durP2;ratioP2
82012;SDS011;71535;53.354;15.030;2024-01-11T05:37:45;14.55;;;4.95;;
82012;SDS011;71535;53.354;15.030;2024-01-11T05:46:07;12.93;;;5.50;;
82012;SDS011;71535;53.354;15.030;2024-01-11T05:47:26;18.95;;;6.68;;
82012;SDS011;71535;53.354;15.030;2024-01-11T05:50:16;15.55;;;6.18;;
82012;SDS011;71535;53.354;15.030;2024-01-11T08:30:30;17.13;;;7.07;;
82012;SDS011;71535;53.354;15.030;2024-01-11T08:34:17;22.05;;;9.43;;
82012;SDS011;71535;53.354;15.030;2024-01-11T08:35:57;20.52;;;7.72;;
82012;SDS011;71535;53.354;15.030;2024-01-11T08:37:23;17.70;;;7.38;;
82012;SDS011;71535;53.354;15.030;2024-01-11T08:38:48;19.83;;;8.07;;
82012;SDS011;71535;53.354;15.030;2024-01-11T08:40:04;15.93;;;6.55;;
82012;SDS011;71535;53.354;15.030;2024-01-11T08:42:48;16.55;;;6.70;;
82012;SDS011;71535;53.354;15.030;2024-01-11T08:42:55;17.48;;;7.15;;
82012;SDS011;71535;53.354;15.030;2024-01-11T08:44:14;18.60;;;7.50;;
82012;SDS011;71535;53.354;15.030;2024-01-11T08:45:37;17.70;;;7.25;;
82012;SDS011;71535;53.354;15.030;2024-01-11T08:48:32;15.73;;;6.82;;
82012;SDS011;71535;53.354;15.030;2024-01-11T08:49:48;17.70;;;7.25;;
82012;SDS011;71535;53.354;15.030;2024-01-11T08:51:03;20.58;;;7.25;;
82012;SDS011;71535;53.354;15.030;2024-01-11T08:52:09;19.95;;;7.45;;
82012;SDS011;71535;53.354;15.030;2024-01-11T08:53:43;17.63;;;7.45;;
82012;SDS011;71535;53.354;15.030;2024-01-11T08:54:53;22.85;;;9.27;;
82012;SDS011;71535;53.354;15.030;2024-01-11T08:56:04;20.83;;;8.68;;
82012;SDS011;71535;53.354;15.030;2024-01-11T08:57:22;20.60;;;8.82;;
82012;SDS011;71535;53.354;15.030;2024-01-11T08:59:32;20.20;;;8.93;;
82012;SDS011;71535;53.354;15.030;2024-01-11T09:05:24;21.27;;;8.35;;
82012;SDS011;71535;53.354;15.030;2024-01-11T09:06:41;22.08;;;8.60;;
82012;SDS011;71535;53.354;15.030;2024-01-11T09:07:53;22.25;;;9.38;;
82012;SDS011;71535;53.354;15.030;2024-01-11T09:09:25;22.38;;;8.63;;
82012;SDS011;71535;53.354;15.030;2024-01-11T09:10:55;17.63;;;7.13;;
82012;SDS011;71535;53.354;15.030;2024-01-11T09:12:00;19.63;;;8.32;;
82012;SDS011;71535;53.354;15.030;2024-01-11T09:15:59;17.90;;;7.68;;
82012;SDS011;71535;53.354;15.030;2024-01-11T09:17:19;18.30;;;7.88;;
82012;SDS011;71535;53.354;15.030;2024-01-11T09:19:55;16.75;;;5.93;;
82012;SDS011;71535;53.354;15.030;2024-01-11T09:26:34;13.10;;;5.03;;
82012;SDS011;71535;53.354;15.030;2024-01-11T09:27:47;17.50;;;6.10;;
82012;SDS011;71535;53.354;15.030;2024-01-11T09:28:50;13.90;;;5.82;;
82012;SDS011;71535;53.354;15.030;2024-01-11T09:31:38;12.25;;;5.32;;
82012;SDS011;71535;53.354;15.030;2024-01-11T09:32:58;17.27;;;6.75;;
82012;SDS011;71535;53.354;15.030;2024-01-11T09:34:06;13.93;;;6.20;;
82012;SDS011;71535;53.354;15.030;2024-01-11T09:35:27;16.73;;;6.85;;
82012;SDS011;71535;53.354;15.030;2024-01-11T09:36:50;14.13;;;5.13;;
82012;SDS011;71535;53.354;15.030;2024-01-11T09:38:09;15.45;;;6.10;;
82012;SDS011;71535;53.354;15.030;2024-01-11T09:41:00;17.20;;;5.80;;
82012;SDS011;71535;53.354;15.030;2024-01-11T09:43:45;19.55;;;7.25;;
82012;SDS011;71535;53.354;15.030;2024-01-11T09:45:59;18.48;;;7.43;;
82012;SDS011;71535;53.354;15.030;2024-01-11T09:47:08;19.25;;;8.05;;
82012;SDS011;71535;53.354;15.030;2024-01-11T09:48:23;15.55;;;5.70;;
82012;SDS011;71535;53.354;15.030;2024-01-11T09:49:49;15.32;;;6.10;;
82012;SDS011;71535;53.354;15.030;2024-01-11T09:51:20;16.38;;;6.57;;
82012;SDS011;71535;53.354;15.030;2024-01-11T09:52:32;17.05;;;6.05;;
82012;SDS011;71535;53.354;15.030;2024-01-11T09:54:07;13.82;;;5.93;;
82012;SDS011;71535;53.354;15.030;2024-01-11T09:55:21;14.30;;;6.07;;
82012;SDS011;71535;53.354;15.030;2024-01-11T09:57:05;14.30;;;5.40;;
82012;SDS011;71535;53.354;15.030;2024-01-11T09:58:41;16.08;;;6.65;;
82012;SDS011;71535;53.354;15.030;2024-01-11T09:59:48;14.27;;;5.82;;
82012;SDS011;71535;53.354;15.030;2024-01-11T10:00:54;16.92;;;8.00;;
82012;SDS011;71535;53.354;15.030;2024-01-11T10:02:17;23.92;;;9.90;;
82012;SDS011;71535;53.354;15.030;2024-01-11T10:03:26;16.15;;;5.70;;
82012;SDS011;71535;53.354;15.030;2024-01-11T10:04:33;13.93;;;5.72;;
82012;SDS011;71535;53.354;15.030;2024-01-11T10:05:47;14.05;;;5.57;;
82012;SDS011;71535;53.354;15.030;2024-01-11T10:06:55;17.17;;;6.32;;
82012;SDS011;71535;53.354;15.030;2024-01-11T10:09:42;17.48;;;6.20;;
82012;SDS011;71535;53.354;15.030;2024-01-11T10:13:21;18.52;;;6.60;;
82012;SDS011;71535;53.354;15.030;2024-01-11T10:14:28;13.48;;;5.53;;
82012;SDS011;71535;53.354;15.030;2024-01-11T10:15:37;12.95;;;5.30;;
82012;SDS011;71535;53.354;15.030;2024-01-11T10:17:00;15.32;;;6.35;;
82012;SDS011;71535;53.354;15.030;2024-01-11T10:18:07;13.57;;;5.30;;
82012;SDS011;71535;53.354;15.030;2024-01-11T10:19:09;15.15;;;6.43;;
82012;SDS011;71535;53.354;15.030;2024-01-11T10:20:16;18.02;;;6.43;;
82012;SDS011;71535;53.354;15.030;2024-01-11T10:21:27;15.85;;;5.70;;
82012;SDS011;71535;53.354;15.030;2024-01-11T10:22:40;15.20;;;6.63;;
82012;SDS011;71535;53.354;15.030;2024-01-11T10:23:50;14.55;;;6.03;;
82012;SDS011;71535;53.354;15.030;2024-01-11T10:26:40;14.27;;;5.93;;
82012;SDS011;71535;53.354;15.030;2024-01-11T10:27:56;16.45;;;6.45;;
82012;SDS011;71535;53.354;15.030;2024-01-11T10:29:02;14.77;;;6.22;;
82012;SDS011;71535;53.354;15.030;2024-01-11T10:30:12;16.85;;;6.13;;
82012;SDS011;71535;53.354;15.030;2024-01-11T10:34:22;17.60;;;6.60;;
82012;SDS011;71535;53.354;15.030;2024-01-11T10:35:32;15.88;;;6.43;;
82012;SDS011;71535;53.354;15.030;2024-01-11T10:36:55;16.40;;;7.10;;
82012;SDS011;71535;53.354;15.030;2024-01-11T10:38:12;17.35;;;7.72;;
82012;SDS011;71535;53.354;15.030;2024-01-11T10:39:36;16.25;;;7.00;;
82012;SDS011;71535;53.354;15.030;2024-01-11T10:40:55;16.90;;;6.90;;
82012;SDS011;71535;53.354;15.030;2024-01-11T10:43:44;15.85;;;6.07;;
82012;SDS011;71535;53.354;15.030;2024-01-11T10:44:53;14.25;;;5.85;;
82012;SDS011;71535;53.354;15.030;2024-01-11T10:46:11;12.90;;;5.20;;
82012;SDS011;71535;53.354;15.030;2024-01-11T10:47:19;15.38;;;6.05;;
82012;SDS011;71535;53.354;15.030;2024-01-11T10:48:26;15.95;;;6.13;;
82012;SDS011;71535;53.354;15.030;2024-01-11T10:55:19;16.20;;;5.53;;
82012;SDS011;71535;53.354;15.030;2024-01-11T10:56:43;15.88;;;5.82;;
82012;SDS011;71535;53.354;15.030;2024-01-11T11:00:53;14.90;;;6.18;;
82012;SDS011;71535;53.354;15.030;2024-01-11T11:07:28;16.50;;;6.00;;
